Time;durP1;ratioP1;P1;durP2;ratioP2;P2;SDS_P1;SDS_P2;PMS_P1;PMS_P2;Temp;Humidity;BMP_temperature;BMP_pressure;BME280_temperature;BME280_humidity;BME280_pressure;Samples;Min_cycle;Max_cycle;Signal;HPM_P1;HPM_P2
2023/06/27 00:00:13;;;;;;;;;;;;;;;22.30;51.08;99284.53;4460411;32;34248;-77
2023/06/27 00:02:53;;;;;;;;;;;;;;;22.32;51.40;99294.03;4463080;32;33269;-74
2023/06/27 00:05:34;;;;;;;;;;;;;;;22.10;51.94;99284.06;4475833;32;33230;-75
2023/06/27 00:08:06;;;;;;;;;;;;;;;22.20;51.51;99286.94;4469008;32;33807;-75
2023/06/27 00:10:36;;;;;;;;;;;;;;;22.06;52.00;99281.72;4466162;32;34069;-74
2023/06/27 00:13:15;;;;;;;;;;;;;;;22.06;52.18;99287.00;4464746;32;34922;-75
2023/06/27 00:15:44;;;;;;;;;;;;;;;22.08;52.13;99291.22;4474091;32;33012;-76
2023/06/27 00:18:17;;;;;;;;;;;;;;;21.93;51.94;99292.28;4475765;32;34065;-76
2023/06/27 00:20:46;;;;;;;;;;;;;;;21.90;51.96;99293.31;4477883;32;33563;-75
2023/06/27 00:23:24;;;;;;;;;;;;;;;21.86;52.16;99294.47;4481911;32;33735;-75
2023/06/27 00:25:52;;;;;;;;;;;;;;;21.80;52.26;99296.69;4475922;32;33379;-76
2023/06/27 00:28:24;;;;;;;;;;;;;;;21.79;52.14;99295.81;4475915;32;34759;-75
2023/06/27 00:30:52;;;;;;;;;;;;;;;21.76;52.38;99295.19;4475945;32;35189;-77
2023/06/27 00:33:23;;;;;;;;;;;;;;;21.69;52.62;99294.72;4481747;32;34092;-76
2023/06/27 00:35:52;;;;;;;;;;;;;;;21.74;52.49;99304.03;4476835;32;34642;-75
2023/06/27 00:38:25;;;;;;;;;;;;;;;21.81;52.90;99296.56;4462617;32;33793;-77
2023/06/27 00:40:54;;;;;;;;;;;;;;;21.46;53.26;99301.53;4464682;32;34204;-75
2023/06/27 00:43:23;;;;;;;;;;;;;;;21.60;52.97;99295.31;4463393;32;34084;-73
2023/06/27 00:45:52;;;;;;;;;;;;;;;21.50;53.71;99303.88;4465763;32;32884;-75
2023/06/27 00:48:21;;;;;;;;;;;;;;;21.52;53.81;99306.38;4460421;32;33913;-77
2023/06/27 00:50:54;;;;;;;;;;;;;;;21.55;53.82;99308.81;4476090;32;33977;-74
2023/06/27 00:53:32;;;;;;;;;;;;;;;21.60;53.91;99297.97;4477797;32;34231;-76
2023/06/27 00:56:00;;;;;;;;;;;;;;;21.67;53.71;99297.50;4475737;32;33190;-75
2023/06/27 00:58:29;;;;;;;;;;;;;;;21.62;53.96;99294.28;4480886;32;35285;-75
2023/06/27 01:01:00;;;;;;;;;;;;;;;21.63;54.01;99284.59;4476192;32;33964;-74
2023/06/27 01:03:32;;;;;;;;;;;;;;;21.67;53.97;99288.69;4477436;32;34424;-74
2023/06/27 01:06:06;;;;;;;;;;;;;;;21.62;54.11;99286.34;4475473;32;33385;-75
2023/06/27 01:08:41;;;;;;;;;;;;;;;21.62;54.06;99293.44;4470565;32;33547;-74
2023/06/27 01:11:15;;;;;;;;;;;;;;;21.67;53.54;99294.84;4471098;32;33864;-75
2023/06/27 01:13:49;;;;;;;;;;;;;;;21.57;54.36;99285.81;4475331;32;33689;-75
2023/06/27 01:16:21;;;;;;;;;;;;;;;21.60;54.06;99287.41;4460136;32;33022;-74
2023/06/27 01:18:58;;;;;;;;;;;;;;;21.67;53.84;99280.78;4476822;32;34328;-75
2023/06/27 01:21:28;;;;;;;;;;;;;;;21.87;53.24;99268.94;4474001;32;33924;-76
2023/06/27 01:24:03;;;;;;;;;;;;;;;21.72;53.68;99278.69;4461554;32;34686;-75
2023/06/27 01:26:31;;;;;;;;;;;;;;;21.74;53.89;99266.22;4474279;32;33826;-74
2023/06/27 01:29:05;;;;;;;;;;;;;;;21.77;53.85;99265.19;4474997;32;34461;-75
2023/06/27 01:31:34;;;;;;;;;;;;;;;21.92;52.83;99249.16;4479717;32;33782;-74
2023/06/27 01:34:11;;;;;;;;;;;;;;;21.89;53.00;99251.16;4481017;32;33755;-77
2023/06/27 01:36:46;;;;;;;;;;;;;;;21.71;53.36;99256.72;4475080;32;33628;-76
2023/06/27 01:39:17;;;;;;;;;;;;;;;21.50;53.41;99244.94;4474713;32;34238;-77
2023/06/27 01:41:47;;;;;;;;;;;;;;;21.45;53.27;99245.22;4467912;32;35367;-75
2023/06/27 01:44:15;;;;;;;;;;;;;;;21.65;52.94;99249.22;4471143;32;33845;-74
2023/06/27 01:46:45;;;;;;;;;;;;;;;21.69;53.25;99232.22;4466167;32;34433;-77
2023/06/27 01:49:16;;;;;;;;;;;;;;;21.54;53.84;99241.16;4466775;32;33159;-74
2023/06/27 01:51:45;;;;;;;;;;;;;;;21.66;53.79;99248.25;4475584;32;33571;-75
2023/06/27 01:54:16;;;;;;;;;;;;;;;21.59;53.69;99241.69;4465301;32;33515;-75
2023/06/27 01:56:46;;;;;;;;;;;;;;;21.63;53.43;99239.72;4466746;32;32618;-75
2023/06/27 01:59:18;;;;;;;;;;;;;;;21.58;52.92;99239.19;4470993;32;32755;-75
2023/06/27 02:01:49;;;;;;;;;;;;;;;21.58;52.71;99241.81;4478468;32;34250;-76
2023/06/27 02:04:19;;;;;;;;;;;;;;;21.49;53.07;99243.25;4469325;32;34508;-74
2023/06/27 02:06:48;;;;;;;;;;;;;;;21.38;53.58;99240.41;4461324;32;33331;-74
2023/06/27 02:09:21;;;;;;;;;;;;;;;21.36;53.61;99235.25;4482513;32;34215;-76
2023/06/27 02:11:52;;;;;;;;;;;;;;;21.42;53.04;99240.16;4478615;32;33747;-76
2023/06/27 02:14:21;;;;;;;;;;;;;;;21.38;53.21;99240.41;4478226;32;34159;-75
2023/06/27 02:16:53;;;;;;;;;;;;;;;21.35;53.11;99244.09;4476680;32;33135;-77
2023/06/27 02:19:24;;;;;;;;;;;;;;;21.43;52.78;99246.28;4483281;32;33827;-77
2023/06/27 02:21:59;;;;;;;;;;;;;;;21.36;52.82;99252.88;4476763;32;33901;-77
2023/06/27 02:24:30;;;;;;;;;;;;;;;21.30;53.38;99247.03;4478344;32;34183;-75
2023/06/27 02:26:59;;;;;;;;;;;;;;;21.21;53.46;99242.34;4476765;32;33221;-76
2023/06/27 02:29:27;;;;;;;;;;;;;;;21.12;53.61;99234.19;4476513;32;33938;-74
2023/06/27 02:31:56;;;;;;;;;;;;;;;21.18;53.77;99229.38;4482537;32;34881;-74
2023/06/27 02:34:28;;;;;;;;;;;;;;;21.31;53.38;99229.41;4477043;32;34489;-77
2023/06/27 02:36:57;;;;;;;;;;;;;;;21.34;53.36;99216.03;4472256;32;33724;-74
2023/06/27 02:39:29;;;;;;;;;;;;;;;21.28;53.01;99216.44;4478253;32;33265;-76
2023/06/27 02:42:01;;;;;;;;;;;;;;;21.18;53.19;99210.06;4481757;32;33701;-76
2023/06/27 02:44:32;;;;;;;;;;;;;;;21.29;53.08;99203.16;4482395;32;34062;-75
2023/06/27 02:47:05;;;;;;;;;;;;;;;21.25;52.83;99201.66;4468918;32;33232;-74
2023/06/27 02:49:34;;;;;;;;;;;;;;;21.44;52.52;99195.22;4475827;32;34616;-77
2023/06/27 02:52:03;;;;;;;;;;;;;;;21.40;52.44;99199.00;4481081;32;33989;-74
2023/06/27 02:54:34;;;;;;;;;;;;;;;21.61;51.82;99192.28;4477782;32;33982;-75
2023/06/27 02:57:04;;;;;;;;;;;;;;;21.47;52.12;99200.28;4476118;32;33562;-77
2023/06/27 02:59:35;;;;;;;;;;;;;;;21.52;52.24;99200.81;4477419;32;33629;-77
2023/06/27 03:02:06;;;;;;;;;;;;;;;21.60;51.26;99206.44;4476995;32;33864;-75
2023/06/27 03:04:38;;;;;;;;;;;;;;;21.09;52.60;99224.69;4477968;32;34001;-75
2023/06/27 03:07:19;;;;;;;;;;;;;;;21.09;53.07;99229.94;4482506;32;33393;-77
2023/06/27 03:09:54;;;;;;;;;;;;;;;21.12;53.37;99236.81;4475270;32;33816;-77
2023/06/27 03:12:22;;;;;;;;;;;;;;;21.14;53.59;99230.50;4473678;32;33819;-75
2023/06/27 03:14:53;;;;;;;;;;;;;;;21.10;53.90;99235.12;4476663;32;33848;-77
2023/06/27 03:17:23;;;;;;;;;;;;;;;21.18;53.67;99231.16;4476772;32;35400;-75
2023/06/27 03:19:52;;;;;;;;;;;;;;;21.21;54.19;99226.53;4466477;32;33954;-75
2023/06/27 03:22:21;;;;;;;;;;;;;;;21.12;54.30;99221.88;4463471;32;33668;-75
2023/06/27 03:24:57;;;;;;;;;;;;;;;21.17;54.41;99218.94;4467188;32;35095;-77
2023/06/27 03:27:26;;;;;;;;;;;;;;;21.26;54.41;99219.19;4476406;32;34259;-75
2023/06/27 03:29:56;;;;;;;;;;;;;;;21.25;54.32;99214.00;4482388;32;33283;-76
2023/06/27 03:32:25;;;;;;;;;;;;;;;21.45;53.64;99221.47;4477576;32;34315;-75
2023/06/27 03:35:00;;;;;;;;;;;;;;;21.45;53.85;99221.47;4478798;32;34301;-76
2023/06/27 03:37:29;;;;;;;;;;;;;;;21.50;53.82;99216.78;4476721;32;33267;-77
2023/06/27 03:40:02;;;;;;;;;;;;;;;21.58;53.56;99213.63;4476788;32;33968;-75
2023/06/27 03:42:32;;;;;;;;;;;;;;;21.57;53.65;99205.78;4482023;32;33770;-75
2023/06/27 03:45:01;;;;;;;;;;;;;;;21.74;53.10;99208.97;4478056;32;35156;-76
2023/06/27 03:47:31;;;;;;;;;;;;;;;21.66;53.54;99206.03;4477719;32;33467;-78
2023/06/27 03:50:03;;;;;;;;;;;;;;;21.86;53.38;99202.03;4477000;32;34345;-75
2023/06/27 03:52:32;;;;;;;;;;;;;;;21.95;53.60;99197.94;4482062;32;34561;-76
2023/06/27 03:55:07;;;;;;;;;;;;;;;22.14;53.43;99197.53;4476392;32;34550;-77
2023/06/27 03:57:36;;;;;;;;;;;;;;;22.16;53.22;99207.03;4474068;32;32984;-75
2023/06/27 04:00:07;;;;;;;;;;;;;;;22.19;51.50;99200.69;4477110;32;33695;-77
2023/06/27 04:02:42;;;;;;;;;;;;;;;22.38;50.91;99205.59;4469439;32;34659;-75
2023/06/27 04:05:15;;;;;;;;;;;;;;;22.44;51.24;99199.84;4465937;32;33880;-78
2023/06/27 04:07:45;;;;;;;;;;;;;;;22.44;50.66;99206.94;4461390;32;34136;-76
2023/06/27 04:10:15;;;;;;;;;;;;;;;22.58;50.74;99199.72;4460562;32;34886;-76
2023/06/27 04:12:44;;;;;;;;;;;;;;;22.53;50.81;99201.84;4477218;32;34388;-76
2023/06/27 04:15:15;;;;;;;;;;;;;;;22.44;51.20;99202.50;4480509;32;34441;-76
2023/06/27 04:17:45;;;;;;;;;;;;;;;22.47;51.66;99206.72;4481756;32;33338;-75
2023/06/27 04:20:16;;;;;;;;;;;;;;;22.39;51.88;99209.91;4476431;32;34303;-75
2023/06/27 04:22:45;;;;;;;;;;;;;;;22.66;51.95;99222.13;4477933;32;33818;-74
2023/06/27 04:25:22;;;;;;;;;;;;;;;22.76;51.03;99223.16;4476161;32;33742;-77
2023/06/27 04:27:57;;;;;;;;;;;;;;;22.33;50.98;99221.75;4466260;32;33387;-75
2023/06/27 04:30:26;;;;;;;;;;;;;;;22.40;50.32;99229.25;4460365;32;34210;-77
2023/06/27 04:32:57;;;;;;;;;;;;;;;22.21;50.76;99225.25;4461253;32;34117;-76
2023/06/27 04:35:26;;;;;;;;;;;;;;;22.19;51.07;99229.75;4462617;32;35232;-75
2023/06/27 04:37:56;;;;;;;;;;;;;;;22.36;51.05;99218.06;4462251;32;33302;-76
2023/06/27 04:40:27;;;;;;;;;;;;;;;22.55;50.83;99231.69;4468221;32;33939;-77
2023/06/27 04:43:04;;;;;;;;;;;;;;;22.82;49.58;99228.03;4469964;32;33162;-76
2023/06/27 04:45:33;;;;;;;;;;;;;;;22.66;50.11;99227.44;4470757;32;35165;-76
2023/06/27 04:48:03;;;;;;;;;;;;;;;22.75;50.40;99254.06;4471499;32;34764;-76
2023/06/27 04:50:32;;;;;;;;;;;;;;;22.86;49.59;99240.09;4483388;32;34227;-78
2023/06/27 04:53:05;;;;;;;;;;;;;;;22.61;51.35;99246.25;4478913;32;34774;-76
2023/06/27 04:55:35;;;;;;;;;;;;;;;22.51;53.12;99243.41;4471115;32;33965;-79
2023/06/27 04:58:04;;;;;;;;;;;;;;;22.51;56.82;99247.84;4462794;32;34029;-76
2023/06/27 05:00:33;;;;;;;;;;;;;;;22.41;58.75;99238.87;4478811;32;33908;-76
2023/06/27 05:03:02;;;;;;;;;;;;;;;22.15;60.32;99233.56;4471398;32;33903;-77
2023/06/27 05:05:33;;;;;;;;;;;;;;;22.26;61.19;99230.22;4464227;32;34760;-76
2023/06/27 05:08:03;;;;;;;;;;;;;;;22.27;62.26;99221.34;4462709;32;32586;-76
2023/06/27 05:10:36;;;;;;;;;;;;;;;22.56;61.29;99214.84;4473009;32;34782;-78
2023/06/27 05:13:05;;;;;;;;;;;;;;;22.63;60.48;99219.72;4482763;32;34045;-76
2023/06/27 05:15:37;;;;;;;;;;;;;;;23.06;59.84;99224.63;4482672;32;34439;-77
2023/06/27 05:18:22;;;;;;;;;;;;;;;22.71;62.34;99226.16;4476929;32;33710;-78
2023/06/27 05:20:54;;;;;;;;;;;;;;;22.86;62.54;99226.00;4478286;32;34081;-77
2023/06/27 05:23:23;;;;;;;;;;;;;;;22.92;62.05;99231.72;4477491;32;33826;-79
2023/06/27 05:25:55;;;;;;;;;;;;;;;23.12;59.79;99235.62;4484402;32;34420;-76
2023/06/27 05:28:24;;;;;;;;;;;;;;;23.08;60.83;99249.19;4470560;32;34189;-76
2023/06/27 05:30:55;;;;;;;;;;;;;;;22.95;61.76;99251.81;4463004;32;34375;-77
2023/06/27 05:33:24;;;;;;;;;;;;;;;23.08;61.77;99249.19;4464221;32;34624;-76
2023/06/27 05:35:53;;;;;;;;;;;;;;;23.31;60.22;99248.34;4462672;32;34197;-77
2023/06/27 05:38:23;;;;;;;;;;;;;;;23.52;58.85;99240.63;4468225;32;32765;-76
2023/06/27 05:40:52;;;;;;;;;;;;;;;24.01;58.98;99233.47;4463763;32;33935;-76
2023/06/27 05:43:23;;;;;;;;;;;;;;;24.30;56.88;99244.50;4467198;32;33381;-79
2023/06/27 05:45:55;;;;;;;;;;;;;;;24.49;55.83;99243.94;4465146;32;33726;-79
2023/06/27 05:48:26;;;;;;;;;;;;;;;24.34;56.40;99258.38;4469265;32;33907;-76
2023/06/27 05:50:56;;;;;;;;;;;;;;;24.34;57.30;99261.87;4473598;32;33741;-78
2023/06/27 05:53:28;;;;;;;;;;;;;;;24.23;57.14;99265.31;4476209;32;33493;-76
2023/06/27 05:55:58;;;;;;;;;;;;;;;24.19;57.89;99265.69;4474989;32;33889;-76
2023/06/27 05:58:32;;;;;;;;;;;;;;;23.90;58.57;99262.63;4478490;32;32830;-76
2023/06/27 06:01:04;;;;;;;;;;;;;;;23.76;58.73;99259.19;4484939;32;34696;-77
2023/06/27 06:03:33;;;;;;;;;;;;;;;23.60;59.61;99248.84;4475832;32;34807;-80
2023/06/27 06:06:05;;;;;;;;;;;;;;;23.52;60.33;99253.03;4473329;32;34508;-76
2023/06/27 06:08:34;;;;;;;;;;;;;;;23.45;60.54;99247.34;4464643;32;33403;-78
2023/06/27 06:11:07;;;;;;;;;;;;;;;23.33;61.36;99251.72;4469382;32;34711;-76
2023/06/27 06:13:37;;;;;;;;;;;;;;;23.42;61.50;99250.22;4479461;32;34747;-77
2023/06/27 06:16:06;;;;;;;;;;;;;;;23.52;61.50;99247.72;4471404;32;34158;-76
2023/06/27 06:18:35;;;;;;;;;;;;;;;23.50;61.41;99239.87;4471224;32;34205;-75
2023/06/27 06:21:04;;;;;;;;;;;;;;;23.77;61.40;99244.97;4473807;32;34687;-77
2023/06/27 06:23:34;;;;;;;;;;;;;;;23.70;62.14;99242.88;4482842;32;33905;-78
2023/06/27 06:26:05;;;;;;;;;;;;;;;24.10;60.76;99243.38;4479077;32;34117;-76
2023/06/27 06:28:35;;;;;;;;;;;;;;;23.91;60.65;99248.41;4474528;32;33997;-77
2023/06/27 06:31:06;;;;;;;;;;;;;;;24.08;61.29;99247.94;4463861;32;33556;-77
2023/06/27 06:33:37;;;;;;;;;;;;;;;24.04;60.71;99249.13;4466887;32;33762;-77
2023/06/27 06:36:07;;;;;;;;;;;;;;;23.71;61.61;99258.66;4468052;32;34009;-76
2023/06/27 06:38:40;;;;;;;;;;;;;;;23.78;61.53;99253.78;4463256;32;33746;-78
2023/06/27 06:41:10;;;;;;;;;;;;;;;23.76;62.10;99261.81;4463579;32;34586;-80
2023/06/27 06:43:39;;;;;;;;;;;;;;;24.11;61.91;99262.78;4450613;32;33318;-77
2023/06/27 06:46:09;;;;;;;;;;;;;;;24.00;61.46;99261.78;4468571;32;34224;-80
2023/06/27 06:48:42;;;;;;;;;;;;;;;23.72;61.80;99270.09;4476017;32;33446;-78
2023/06/27 06:51:12;;;;;;;;;;;;;;;23.84;61.42;99269.19;4478646;32;35062;-78
2023/06/27 06:53:45;;;;;;;;;;;;;;;23.74;62.21;99274.34;4480122;32;34693;-79
2023/06/27 06:56:15;;;;;;;;;;;;;;;23.89;61.41;99280.28;4478638;32;34709;-77
2023/06/27 06:58:47;;;;;;;;;;;;;;;23.92;61.17;99298.63;4484470;32;33491;-76
2023/06/27 07:01:22;;;;;;;;;;;;;;;23.59;61.69;99315.16;4478471;32;33912;-76
2023/06/27 07:03:51;;;;;;;;;;;;;;;23.56;61.35;99299.50;4478318;32;34096;-76
2023/06/27 07:06:22;;;;;;;;;;;;;;;23.33;61.97;99302.00;4470525;32;34662;-79
2023/06/27 07:08:52;;;;;;;;;;;;;;;23.42;62.17;99296.06;4482689;32;33911;-77
2023/06/27 07:11:23;;;;;;;;;;;;;;;23.38;62.00;99297.22;4468148;32;33326;-75
2023/06/27 07:13:52;;;;;;;;;;;;;;;23.23;62.28;99300.16;4468837;32;35020;-76
2023/06/27 07:16:27;;;;;;;;;;;;;;;23.51;61.84;99293.69;4462625;32;33979;-76
2023/06/27 07:18:56;;;;;;;;;;;;;;;23.76;61.16;99298.91;4462520;32;34015;-79
2023/06/27 07:21:24;;;;;;;;;;;;;;;23.60;62.36;99293.84;4468257;32;34163;-77
2023/06/27 07:23:54;;;;;;;;;;;;;;;23.77;61.63;99305.03;4468239;32;34083;-78
2023/06/27 07:26:22;;;;;;;;;;;;;;;24.21;60.03;99307.03;4462684;32;34195;-77
2023/06/27 07:28:53;;;;;;;;;;;;;;;23.85;61.17;99311.47;4462691;32;33691;-78
2023/06/27 07:31:26;;;;;;;;;;;;;;;23.85;61.43;99308.00;4467664;32;33998;-76
2023/06/27 07:33:56;;;;;;;;;;;;;;;23.69;62.45;99308.22;4468325;32;34346;-79
2023/06/27 07:36:27;;;;;;;;;;;;;;;23.91;60.80;99298.72;4463041;32;33433;-79
2023/06/27 07:38:58;;;;;;;;;;;;;;;23.57;61.69;99311.78;4462612;32;33306;-77
2023/06/27 07:41:30;;;;;;;;;;;;;;;23.75;61.02;99299.87;4464107;32;34665;-78
2023/06/27 07:43:59;;;;;;;;;;;;;;;23.78;62.11;99307.59;4468194;32;34247;-75
2023/06/27 07:49:03;;;;;;;;;;;;;;;24.11;60.24;99316.63;4462327;32;33440;-76
2023/06/27 07:51:35;;;;;;;;;;;;;;;24.38;59.47;99320.78;4464266;32;32936;-77
2023/06/27 07:54:04;;;;;;;;;;;;;;;24.74;58.74;99311.00;4462956;32;33761;-77
2023/06/27 07:56:33;;;;;;;;;;;;;;;24.79;58.69;99320.28;4467827;32;35293;-78
2023/06/27 07:59:05;;;;;;;;;;;;;;;24.37;59.93;99314.63;4464091;32;33308;-79
2023/06/27 08:01:40;;;;;;;;;;;;;;;24.65;59.31;99315.22;4465919;32;33890;-78
2023/06/27 08:04:10;;;;;;;;;;;;;;;24.52;58.29;99323.25;4462668;32;34530;-78
2023/06/27 08:06:40;;;;;;;;;;;;;;;24.42;59.01;99324.91;4468130;32;35103;-76
2023/06/27 08:09:08;;;;;;;;;;;;;;;24.44;59.47;99325.63;4478415;32;34343;-80
2023/06/27 08:11:37;;;;;;;;;;;;;;;24.37;59.69;99325.25;4479120;32;33857;-77
2023/06/27 08:14:06;;;;;;;;;;;;;;;24.08;60.56;99329.25;4482638;32;33826;-77
2023/06/27 08:16:42;;;;;;;;;;;;;;;24.29;60.91;99327.66;4477842;32;34689;-80
2023/06/27 08:19:12;;;;;;;;;;;;;;;24.47;59.32;99333.38;4483674;32;33456;-76
2023/06/27 08:21:43;;;;;;;;;;;;;;;24.58;58.33;99333.41;4478471;32;33127;-79
2023/06/27 08:24:12;;;;;;;;;;;;;;;24.49;58.30;99342.06;4481017;32;34355;-79
2023/06/27 08:26:45;;;;;;;;;;;;;;;24.37;59.25;99348.28;4481002;32;33971;-79
2023/06/27 08:29:13;;;;;;;;;;;;;;;24.54;57.98;99339.91;4483869;32;34293;-76
2023/06/27 08:31:43;;;;;;;;;;;;;;;24.27;59.03;99341.00;4482102;32;34234;-77
2023/06/27 08:34:13;;;;;;;;;;;;;;;24.14;59.67;99334.97;4479380;32;33546;-76
2023/06/27 08:36:43;;;;;;;;;;;;;;;23.87;60.18;99327.25;4478016;32;33335;-77
2023/06/27 08:39:15;;;;;;;;;;;;;;;23.67;60.58;99327.84;4478112;32;33364;-79
2023/06/27 08:41:46;;;;;;;;;;;;;;;23.85;60.36;99329.19;4483471;32;33867;-76
2023/06/27 08:44:15;;;;;;;;;;;;;;;24.10;60.27;99325.53;4478280;32;34315;-79
2023/06/27 08:46:44;;;;;;;;;;;;;;;24.21;59.72;99335.31;4477932;32;34908;-77
2023/06/27 08:49:19;;;;;;;;;;;;;;;24.29;59.23;99343.56;4477875;32;33318;-80
2023/06/27 08:51:57;;;;;;;;;;;;;;;24.39;59.13;99338.41;4480803;32;35079;-77
2023/06/27 08:54:30;;;;;;;;;;;;;;;24.40;59.08;99334.78;4483758;32;34663;-79
2023/06/27 08:57:01;;;;;;;;;;;;;;;24.26;59.57;99344.63;4479196;32;34145;-80
2023/06/27 08:59:35;;;;;;;;;;;;;;;24.52;58.81;99346.28;4471975;32;33501;-77
2023/06/27 09:02:04;;;;;;;;;;;;;;;24.24;59.83;99343.91;4467651;32;34025;-77
2023/06/27 09:04:41;;;;;;;;;;;;;;;24.54;59.42;99341.72;4467853;32;34188;-75
2023/06/27 09:07:10;;;;;;;;;;;;;;;24.38;60.26;99353.47;4470058;32;34490;-76
2023/06/27 09:09:47;;;;;;;;;;;;;;;24.56;59.40;99355.72;4478130;32;33372;-77
2023/06/27 09:12:17;;;;;;;;;;;;;;;24.59;59.59;99355.47;4479726;32;33942;-78
2023/06/27 09:14:47;;;;;;;;;;;;;;;24.74;59.46;99359.56;4472831;32;34473;-76
2023/06/27 09:17:17;;;;;;;;;;;;;;;25.00;58.70;99362.03;4475231;32;34056;-78
2023/06/27 09:19:49;;;;;;;;;;;;;;;25.13;58.31;99366.25;4461935;32;33543;-79
2023/06/27 09:22:19;;;;;;;;;;;;;;;25.07;58.13;99372.03;4466905;32;34478;-77
2023/06/27 09:24:50;;;;;;;;;;;;;;;24.99;58.21;99374.44;4462299;32;34729;-80
2023/06/27 09:27:33;;;;;;;;;;;;;;;25.01;57.48;99371.66;4461973;32;33961;-77
2023/06/27 09:30:08;;;;;;;;;;;;;;;24.51;57.92;99379.09;4467363;32;33083;-75
2023/06/27 09:32:38;;;;;;;;;;;;;;;24.58;58.35;99381.16;4461509;32;34691;-78
2023/06/27 09:35:08;;;;;;;;;;;;;;;24.63;58.62;99380.78;4461756;32;34259;-78
2023/06/27 09:37:37;;;;;;;;;;;;;;;24.70;58.16;99376.72;4469087;32;34649;-76
2023/06/27 09:40:16;;;;;;;;;;;;;;;24.57;58.25;99368.00;4479700;32;33594;-79
2023/06/27 09:42:49;;;;;;;;;;;;;;;24.57;58.95;99368.81;4481288;32;33893;-77
2023/06/27 09:45:21;;;;;;;;;;;;;;;24.95;57.95;99364.19;4480277;32;34352;-79
2023/06/27 09:47:54;;;;;;;;;;;;;;;25.06;58.04;99373.00;4475675;32;34107;-76
2023/06/27 09:50:29;;;;;;;;;;;;;;;25.24;56.48;99368.09;4475690;32;34080;-78
2023/06/27 09:53:02;;;;;;;;;;;;;;;25.46;55.75;99372.53;4481338;32;33985;-77
2023/06/27 09:55:32;;;;;;;;;;;;;;;25.57;55.39;99382.31;4481356;32;34432;-77
2023/06/27 09:58:09;;;;;;;;;;;;;;;25.35;56.39;99372.56;4475918;32;35137;-81
2023/06/27 10:00:39;;;;;;;;;;;;;;;25.78;55.32;99387.66;4476754;32;34350;-77
2023/06/27 10:03:09;;;;;;;;;;;;;;;25.98;54.98;99382.59;4478420;32;34273;-80
2023/06/27 10:05:42;;;;;;;;;;;;;;;25.74;54.16;99400.38;4482470;32;33660;-77
2023/06/27 10:08:29;;;;;;;;;;;;;;;25.68;54.43;99384.06;4471232;32;34170;-77
2023/06/27 10:11:05;;;;;;;;;;;;;;;25.58;54.56;99391.94;4467101;32;33023;-79
2023/06/27 10:13:35;;;;;;;;;;;;;;;25.68;54.98;99384.91;4479766;32;33701;-80
2023/06/27 10:16:07;;;;;;;;;;;;;;;25.83;53.95;99389.97;4478787;32;33991;-78
2023/06/27 10:18:36;;;;;;;;;;;;;;;25.82;54.15;99389.13;4467218;32;34230;-80
2023/06/27 10:21:08;;;;;;;;;;;;;;;26.11;53.54;99378.78;4469074;32;33641;-77
2023/06/27 10:23:38;;;;;;;;;;;;;;;26.07;52.92;99385.34;4464714;32;34179;-80
2023/06/27 10:26:08;;;;;;;;;;;;;;;25.77;53.66;99365.56;4463596;32;34550;-79
2023/06/27 10:28:36;;;;;;;;;;;;;;;25.82;53.79;99375.81;4462932;32;34764;-80
2023/06/27 10:31:05;;;;;;;;;;;;;;;25.75;53.66;99370.16;4469171;32;33551;-77
2023/06/27 10:33:42;;;;;;;;;;;;;;;25.71;53.30;99382.03;4467313;32;34934;-79
2023/06/27 10:36:12;;;;;;;;;;;;;;;25.75;50.73;99382.63;4463795;32;35085;-77
2023/06/27 10:38:42;;;;;;;;;;;;;;;25.55;50.98;99393.03;4463292;32;34669;-76
2023/06/27 10:41:23;;;;;;;;;;;;;;;25.62;50.97;99395.22;4466269;32;34264;-79
2023/06/27 10:43:53;;;;;;;;;;;;;;;25.47;50.37;99411.41;4468640;32;34852;-77
2023/06/27 10:46:23;;;;;;;;;;;;;;;25.55;50.21;99411.63;4463237;32;34244;-79
2023/06/27 10:48:53;;;;;;;;;;;;;;;25.36;50.44;99422.03;4465806;32;34099;-77
2023/06/27 10:51:24;;;;;;;;;;;;;;;25.23;51.24;99423.97;4479870;32;34246;-77
2023/06/27 10:54:00;;;;;;;;;;;;;;;25.00;51.91;99429.22;4484208;32;34180;-79
2023/06/27 10:56:29;;;;;;;;;;;;;;;24.94;52.33;99424.38;4483705;32;33815;-78
2023/06/27 10:58:59;;;;;;;;;;;;;;;25.03;51.97;99418.38;4478185;32;34132;-76
2023/06/27 11:01:30;;;;;;;;;;;;;;;25.10;51.79;99422.25;4469230;32;32857;-79
2023/06/27 11:04:01;;;;;;;;;;;;;;;25.00;50.99;99423.06;4469238;32;34124;-78
2023/06/27 11:06:45;;;;;;;;;;;;;;;24.87;52.04;99426.66;4476610;32;33213;-77
2023/06/27 11:09:17;;;;;;;;;;;;;;;24.92;51.83;99428.97;4474810;32;34377;-77
2023/06/27 11:11:55;;;;;;;;;;;;;;;25.05;51.48;99440.31;4475743;32;34322;-78
2023/06/27 11:14:35;;;;;;;;;;;;;;;24.95;52.05;99430.53;4468504;32;33626;-79
2023/06/27 11:17:11;;;;;;;;;;;;;;;24.85;52.08;99436.53;4471070;32;34155;-78
2023/06/27 11:19:42;;;;;;;;;;;;;;;24.88;51.14;99449.56;4468208;32;32305;-77
2023/06/27 11:22:20;;;;;;;;;;;;;;;24.68;52.08;99453.75;4483746;32;33065;-78
2023/06/27 11:24:49;;;;;;;;;;;;;;;24.77;52.28;99457.53;4479102;32;33823;-77
2023/06/27 11:27:19;;;;;;;;;;;;;;;24.96;52.39;99459.63;4469041;32;33971;-80
2023/06/27 11:29:48;;;;;;;;;;;;;;;24.55;53.61;99471.56;4471568;32;34409;-78
2023/06/27 11:32:21;;;;;;;;;;;;;;;24.69;53.81;99483.75;4482374;32;33592;-77
2023/06/27 11:34:50;;;;;;;;;;;;;;;24.40;55.12;99478.78;4474959;32;33616;-78
2023/06/27 11:37:22;;;;;;;;;;;;;;;24.48;55.17;99475.63;4471990;32;33888;-78
2023/06/27 11:40:05;;;;;;;;;;;;;;;24.55;55.23;99460.94;4471102;32;34360;-76
2023/06/27 11:42:35;;;;;;;;;;;;;;;24.62;55.54;99466.63;4476597;32;33602;-78
2023/06/27 11:45:05;;;;;;;;;;;;;;;24.75;54.88;99470.06;4476938;32;34214;-76
2023/06/27 11:47:40;;;;;;;;;;;;;;;24.74;55.20;99475.47;4475309;32;35044;-78
2023/06/27 11:50:09;;;;;;;;;;;;;;;24.87;54.08;99476.25;4478800;32;34403;-77
2023/06/27 11:52:42;;;;;;;;;;;;;;;24.85;54.45;99484.31;4478998;32;34007;-78
2023/06/27 11:55:11;;;;;;;;;;;;;;;24.82;53.76;99486.34;4478241;32;34876;-76
2023/06/27 11:57:46;;;;;;;;;;;;;;;24.81;53.83;99487.31;4483726;32;35224;-78
2023/06/27 12:00:15;;;;;;;;;;;;;;;24.63;54.09;99482.44;4470812;32;34378;-79
2023/06/27 12:02:48;;;;;;;;;;;;;;;24.89;53.43;99480.47;4472111;32;33413;-77
2023/06/27 12:05:17;;;;;;;;;;;;;;;24.74;53.85;99486.91;4473433;32;34874;-77
2023/06/27 12:08:01;;;;;;;;;;;;;;;24.49;54.45;99487.91;4475052;32;33759;-77
2023/06/27 12:10:31;;;;;;;;;;;;;;;24.73;53.92;99477.28;4475169;32;32947;-77
2023/06/27 12:13:01;;;;;;;;;;;;;;;24.57;54.42;99468.78;4469221;32;33474;-77
2023/06/27 12:15:43;;;;;;;;;;;;;;;24.51;55.60;99469.25;4471032;32;34267;-77
2023/06/27 12:18:22;;;;;;;;;;;;;;;24.71;56.70;99452.66;4474106;32;34956;-77
2023/06/27 12:20:54;;;;;;;;;;;;;;;24.77;56.59;99454.88;4474693;32;34508;-76
2023/06/27 12:23:26;;;;;;;;;;;;;;;24.63;57.53;99458.56;4461806;32;31607;-77
2023/06/27 12:25:55;;;;;;;;;;;;;;;24.54;58.08;99458.41;4477251;32;33753;-77
2023/06/27 12:28:25;;;;;;;;;;;;;;;24.70;58.42;99464.25;4471464;32;33794;-78
2023/06/27 12:30:56;;;;;;;;;;;;;;;24.38;59.19;99464.81;4469541;32;34267;-78
2023/06/27 12:33:26;;;;;;;;;;;;;;;24.24;60.03;99481.75;4476441;32;33466;-77
2023/06/27 12:35:55;;;;;;;;;;;;;;;24.64;59.34;99454.09;4476364;32;34972;-80
2023/06/27 12:38:27;;;;;;;;;;;;;;;24.69;57.41;99460.75;4476094;32;35225;-77
2023/06/27 12:40:57;;;;;;;;;;;;;;;24.46;57.18;99470.44;4470507;32;34498;-76
2023/06/27 12:43:29;;;;;;;;;;;;;;;24.36;57.66;99468.56;4472346;32;32580;-77
2023/06/27 12:46:01;;;;;;;;;;;;;;;24.11;57.89;99469.47;4478812;32;34076;-77
2023/06/27 12:48:30;;;;;;;;;;;;;;;24.05;57.40;99478.75;4468839;32;35491;-79
2023/06/27 12:50:59;;;;;;;;;;;;;;;24.10;57.68;99465.16;4467709;32;34170;-77
2023/06/27 12:53:30;;;;;;;;;;;;;;;24.13;56.68;99456.97;4467722;32;34364;-78
2023/06/27 12:56:02;;;;;;;;;;;;;;;24.07;56.39;99458.28;4476106;32;34504;-79
2023/06/27 12:58:31;;;;;;;;;;;;;;;23.78;57.60;99455.94;4469423;32;33235;-79
2023/06/27 13:01:02;;;;;;;;;;;;;;;23.93;57.20;99432.78;4473550;32;35182;-78
2023/06/27 13:03:33;;;;;;;;;;;;;;;23.97;56.75;99428.09;4469440;32;33713;-75
2023/06/27 13:06:07;;;;;;;;;;;;;;;24.16;56.88;99420.50;4478222;32;34251;-77
2023/06/27 13:08:37;;;;;;;;;;;;;;;24.11;56.57;99419.97;4471335;32;33383;-78
2023/06/27 13:11:09;;;;;;;;;;;;;;;24.13;56.32;99427.81;4462242;32;34116;-78